RYR7H LIPX-EBCI
Flight info
| Callsign | RYR7H |
|---|---|
| Flight time | 1h 17m |
| Altitude | 28000 |
| Route | OTZOM Y480 UPXUF L612 ADOSA DCT TAGIP DCT RESIA DCT ARGAX DCT LOKTA DCT TEDGO L608 MISGI Z104 GESLO N852 LNO |
| Aircraft | B738/M-SDE2E3FGHIRWXY/LB1 |
Departure
| Time | 2026-05-04 11:40 |
|---|---|
| Airport | Verona Villafranca Valerio Catullo Airport (LIPX) |
Arrival
| Time | 2026-05-04 12:58 |
|---|---|
| Airport | Brussels South Charleroi Airport (EBCI) |
| Time | Latitude | Longitude | Altitude | Speed | Heading |
|---|---|---|---|---|---|
| 2026-05-04 11:12 | 45.40212 | 10.90461 | 241 ft | 0 kts | 135° |
| 2026-05-04 11:33 | 45.40219 | 10.90450 | 241 ft | 4 kts | 136° |
| 2026-05-04 11:33 | 45.40239 | 10.90424 | 241 ft | 4 kts | 139° |
| 2026-05-04 11:33 | 45.40250 | 10.90409 | 241 ft | 0 kts | 137° |
| 2026-05-04 11:36 | 45.40250 | 10.90410 | 241 ft | 1 kts | 137° |
| 2026-05-04 11:36 | 45.40253 | 10.90418 | 241 ft | 1 kts | 64° |
| 2026-05-04 11:37 | 45.40271 | 10.90443 | 241 ft | 6 kts | 43° |
| 2026-05-04 11:37 | 45.40311 | 10.90498 | 241 ft | 10 kts | 43° |
| 2026-05-04 11:37 | 45.40371 | 10.90583 | 241 ft | 14 kts | 45° |
| 2026-05-04 11:37 | 45.40449 | 10.90696 | 241 ft | 18 kts | 41° |
| 2026-05-04 11:38 | 45.40516 | 10.90748 | 241 ft | 11 kts | 342° |
| 2026-05-04 11:38 | 45.40582 | 10.90665 | 241 ft | 15 kts | 318° |
| 2026-05-04 11:38 | 45.40629 | 10.90563 | 244 ft | 12 kts | 264° |
| 2026-05-04 11:38 | 45.40611 | 10.90436 | 246 ft | 14 kts | 258° |
| 2026-05-04 11:39 | 45.40571 | 10.90311 | 245 ft | 9 kts | 225° |
| 2026-05-04 11:39 | 45.40448 | 10.90130 | 245 ft | 56 kts | 225° |
| 2026-05-04 11:40 | 45.36212 | 10.83073 | 2813 ft | 198 kts | 240° |
| 2026-05-04 11:41 | 45.35526 | 10.81296 | 3194 ft | 211 kts | 242° |
| 2026-05-04 11:41 | 45.34855 | 10.79332 | 3504 ft | 230 kts | 249° |
| 2026-05-04 11:41 | 45.34214 | 10.77229 | 4088 ft | 234 kts | 237° |
| 2026-05-04 11:41 | 45.33028 | 10.75661 | 4558 ft | 242 kts | 206° |
| 2026-05-04 11:42 | 45.31340 | 10.75150 | 4885 ft | 262 kts | 176° |
| 2026-05-04 11:42 | 45.29636 | 10.75936 | 5670 ft | 265 kts | 148° |
| 2026-05-04 11:42 | 45.28341 | 10.77760 | 6399 ft | 273 kts | 122° |
| 2026-05-04 11:42 | 45.27812 | 10.80347 | 7079 ft | 280 kts | 92° |
| 2026-05-04 11:43 | 45.28177 | 10.83068 | 7816 ft | 286 kts | 66° |
| 2026-05-04 11:43 | 45.29345 | 10.85323 | 8509 ft | 292 kts | 40° |
| 2026-05-04 11:43 | 45.31092 | 10.86776 | 9212 ft | 297 kts | 23° |
| 2026-05-04 11:43 | 45.33042 | 10.87790 | 9914 ft | 302 kts | 18° |
| 2026-05-04 11:44 | 45.35052 | 10.88698 | 10479 ft | 311 kts | 17° |
| 2026-05-04 11:44 | 45.37182 | 10.89646 | 10648 ft | 334 kts | 18° |
| 2026-05-04 11:44 | 45.39420 | 10.90660 | 11124 ft | 344 kts | 18° |
| 2026-05-04 11:44 | 45.41689 | 10.91709 | 11770 ft | 348 kts | 18° |
| 2026-05-04 11:45 | 45.44001 | 10.92797 | 12528 ft | 349 kts | 19° |
| 2026-05-04 11:45 | 45.46301 | 10.93890 | 13251 ft | 352 kts | 19° |
| 2026-05-04 11:45 | 45.48638 | 10.95008 | 13929 ft | 358 kts | 19° |
| 2026-05-04 11:45 | 45.50991 | 10.96138 | 14552 ft | 362 kts | 19° |
| 2026-05-04 11:46 | 45.53382 | 10.97288 | 15242 ft | 365 kts | 19° |
| 2026-05-04 11:46 | 45.55796 | 10.98449 | 15976 ft | 366 kts | 19° |
| 2026-05-04 11:46 | 45.58210 | 10.99612 | 16714 ft | 367 kts | 18° |
| 2026-05-04 11:46 | 45.60642 | 11.00783 | 17343 ft | 373 kts | 18° |
| 2026-05-04 11:47 | 45.63206 | 11.01406 | 17854 ft | 379 kts | 355° |
| 2026-05-04 11:47 | 45.65737 | 11.00620 | 18483 ft | 379 kts | 335° |
| 2026-05-04 11:47 | 45.67981 | 10.98673 | 19062 ft | 376 kts | 319° |
| 2026-05-04 11:47 | 45.70012 | 10.96330 | 19792 ft | 374 kts | 318° |
| 2026-05-04 11:48 | 45.72016 | 10.93960 | 20482 ft | 374 kts | 317° |
| 2026-05-04 11:48 | 45.74001 | 10.91610 | 21054 ft | 376 kts | 318° |
| 2026-05-04 11:48 | 45.76005 | 10.89254 | 21614 ft | 379 kts | 318° |
| 2026-05-04 11:48 | 45.78064 | 10.86846 | 22184 ft | 381 kts | 318° |
| 2026-05-04 11:49 | 45.80119 | 10.84452 | 22737 ft | 385 kts | 319° |
| 2026-05-04 11:49 | 45.82217 | 10.82013 | 23201 ft | 390 kts | 319° |
| 2026-05-04 11:49 | 45.84331 | 10.79557 | 23679 ft | 394 kts | 319° |
| 2026-05-04 11:49 | 45.86444 | 10.77103 | 24115 ft | 397 kts | 319° |
| 2026-05-04 11:50 | 45.88584 | 10.74614 | 24624 ft | 397 kts | 319° |
| 2026-05-04 11:50 | 45.90725 | 10.72123 | 25187 ft | 397 kts | 319° |
| 2026-05-04 11:50 | 45.92860 | 10.69634 | 25639 ft | 399 kts | 318° |
| 2026-05-04 11:50 | 45.94297 | 10.67955 | 25881 ft | 402 kts | 318° |
| 2026-05-04 11:51 | 45.97182 | 10.64568 | 26406 ft | 406 kts | 318° |
| 2026-05-04 11:51 | 45.98662 | 10.62826 | 26646 ft | 409 kts | 318° |
| 2026-05-04 11:51 | 46.00880 | 10.60212 | 26995 ft | 413 kts | 317° |
| 2026-05-04 11:51 | 46.03112 | 10.57580 | 27380 ft | 414 kts | 318° |
| 2026-05-04 11:52 | 46.05323 | 10.54970 | 27774 ft | 417 kts | 317° |
| 2026-05-04 11:52 | 46.07566 | 10.52319 | 28167 ft | 419 kts | 318° |
| 2026-05-04 11:52 | 46.09822 | 10.49652 | 28563 ft | 421 kts | 318° |
| 2026-05-04 11:52 | 46.12096 | 10.46960 | 28953 ft | 423 kts | 318° |
| 2026-05-04 11:53 | 46.14365 | 10.44271 | 29329 ft | 425 kts | 318° |
| 2026-05-04 11:53 | 46.16657 | 10.41553 | 29672 ft | 428 kts | 318° |
| 2026-05-04 11:53 | 46.18973 | 10.38802 | 30035 ft | 431 kts | 317° |
| 2026-05-04 11:53 | 46.21263 | 10.36079 | 30317 ft | 434 kts | 317° |
| 2026-05-04 11:55 | 46.37786 | 10.16343 | 32287 ft | 447 kts | 317° |
| 2026-05-04 11:55 | 46.40191 | 10.13457 | 32546 ft | 449 kts | 317° |
| 2026-05-04 11:56 | 46.42584 | 10.10581 | 32784 ft | 451 kts | 317° |
| 2026-05-04 11:56 | 46.45000 | 10.07676 | 32980 ft | 454 kts | 317° |
| 2026-05-04 11:56 | 46.47441 | 10.04739 | 33089 ft | 459 kts | 317° |
| 2026-05-04 11:56 | 46.49893 | 10.01717 | 33305 ft | 460 kts | 315° |
| 2026-05-04 11:57 | 46.52259 | 9.98691 | 33611 ft | 460 kts | 315° |
| 2026-05-04 11:57 | 46.54642 | 9.95599 | 34001 ft | 458 kts | 315° |
| 2026-05-04 11:57 | 46.57016 | 9.92505 | 34170 ft | 460 kts | 315° |
| 2026-05-04 11:58 | 46.61795 | 9.86289 | 34149 ft | 461 kts | 315° |
| 2026-05-04 11:58 | 46.66543 | 9.80136 | 34143 ft | 455 kts | 315° |
| 2026-05-04 11:59 | 46.71269 | 9.74006 | 34137 ft | 454 kts | 315° |
| 2026-05-04 11:59 | 46.75963 | 9.67901 | 34107 ft | 454 kts | 315° |
| 2026-05-04 12:00 | 46.80684 | 9.61746 | 34088 ft | 454 kts | 315° |
| 2026-05-04 12:00 | 46.85361 | 9.55634 | 34062 ft | 454 kts | 315° |
| 2026-05-04 12:01 | 46.90063 | 9.49474 | 34020 ft | 454 kts | 315° |
| 2026-05-04 12:02 | 47.05933 | 9.28708 | 33983 ft | 451 kts | 320° |
| 2026-05-04 12:03 | 47.11040 | 9.23423 | 33988 ft | 454 kts | 323° |
| 2026-05-04 12:03 | 47.16326 | 9.18223 | 33991 ft | 460 kts | 323° |
| 2026-05-04 12:04 | 47.21584 | 9.12985 | 33982 ft | 460 kts | 323° |
| 2026-05-04 12:04 | 47.26857 | 9.07647 | 33996 ft | 460 kts | 322° |
| 2026-05-04 12:05 | 47.32115 | 9.02281 | 33986 ft | 459 kts | 322° |
| 2026-05-04 12:05 | 47.37307 | 8.96965 | 33993 ft | 458 kts | 322° |
| 2026-05-04 12:06 | 47.42541 | 8.91595 | 33990 ft | 457 kts | 322° |
| 2026-05-04 12:06 | 47.47761 | 8.86227 | 34003 ft | 456 kts | 321° |
| 2026-05-04 12:07 | 47.52969 | 8.80859 | 33995 ft | 455 kts | 321° |
| 2026-05-04 12:07 | 47.58124 | 8.75534 | 33999 ft | 454 kts | 321° |
| 2026-05-04 12:08 | 47.63284 | 8.70188 | 34006 ft | 455 kts | 321° |
| 2026-05-04 12:08 | 47.68477 | 8.64796 | 33981 ft | 455 kts | 321° |
| 2026-05-04 12:09 | 47.73662 | 8.59399 | 33997 ft | 454 kts | 321° |
| 2026-05-04 12:09 | 47.78832 | 8.54004 | 33999 ft | 453 kts | 321° |
| 2026-05-04 12:10 | 47.83956 | 8.48645 | 33998 ft | 453 kts | 321° |
| 2026-05-04 12:10 | 47.89106 | 8.43244 | 34003 ft | 453 kts | 320° |
| 2026-05-04 12:11 | 47.94221 | 8.37867 | 33998 ft | 453 kts | 320° |
| 2026-05-04 12:11 | 47.99373 | 8.32437 | 34000 ft | 453 kts | 320° |
| 2026-05-04 12:12 | 48.04532 | 8.26986 | 33999 ft | 453 kts | 320° |
| 2026-05-04 12:12 | 48.09649 | 8.21567 | 33994 ft | 453 kts | 320° |
| 2026-05-04 12:14 | 48.30210 | 7.99653 | 34001 ft | 455 kts | 319° |
| 2026-05-04 12:15 | 48.35345 | 7.94145 | 33994 ft | 456 kts | 319° |
| 2026-05-04 12:15 | 48.40519 | 7.88582 | 34003 ft | 455 kts | 319° |
| 2026-05-04 12:16 | 48.45622 | 7.83083 | 33989 ft | 454 kts | 319° |
| 2026-05-04 12:16 | 48.50758 | 7.77533 | 34008 ft | 453 kts | 319° |
| 2026-05-04 12:17 | 48.55885 | 7.71978 | 34022 ft | 453 kts | 319° |
| 2026-05-04 12:17 | 48.60996 | 7.66426 | 34023 ft | 453 kts | 319° |
| 2026-05-04 12:18 | 48.66104 | 7.60862 | 34020 ft | 453 kts | 319° |
| 2026-05-04 12:18 | 48.71187 | 7.55313 | 34021 ft | 453 kts | 319° |
| 2026-05-04 12:19 | 48.76282 | 7.49736 | 34012 ft | 454 kts | 319° |
| 2026-05-04 12:19 | 48.81381 | 7.44141 | 34024 ft | 454 kts | 319° |
| 2026-05-04 12:20 | 48.86512 | 7.38494 | 34021 ft | 456 kts | 319° |
| 2026-05-04 12:20 | 48.91654 | 7.32821 | 34026 ft | 458 kts | 319° |
| 2026-05-04 12:21 | 48.96776 | 7.27157 | 34021 ft | 459 kts | 319° |
| 2026-05-04 12:21 | 49.01976 | 7.21391 | 34026 ft | 461 kts | 319° |
| 2026-05-04 12:22 | 49.07124 | 7.15669 | 34014 ft | 461 kts | 318° |
| 2026-05-04 12:22 | 49.12322 | 7.09876 | 34036 ft | 462 kts | 318° |
| 2026-05-04 12:23 | 49.17487 | 7.04104 | 34024 ft | 462 kts | 318° |
| 2026-05-04 12:23 | 49.22673 | 6.98294 | 34009 ft | 461 kts | 318° |
| 2026-05-04 12:24 | 49.27821 | 6.92510 | 34011 ft | 460 kts | 318° |
| 2026-05-04 12:24 | 49.32980 | 6.86697 | 34016 ft | 460 kts | 318° |
| 2026-05-04 12:25 | 49.38098 | 6.80916 | 34009 ft | 459 kts | 318° |
| 2026-05-04 12:25 | 49.43247 | 6.75084 | 34003 ft | 459 kts | 318° |
| 2026-05-04 12:26 | 49.48381 | 6.69255 | 34003 ft | 458 kts | 318° |
| 2026-05-04 12:26 | 49.53371 | 6.63587 | 33982 ft | 434 kts | 318° |
| 2026-05-04 12:27 | 49.55791 | 6.60835 | 33981 ft | 420 kts | 317° |
| 2026-05-04 12:27 | 49.58073 | 6.58236 | 33983 ft | 408 kts | 317° |
| 2026-05-04 12:27 | 49.60309 | 6.55684 | 33988 ft | 395 kts | 317° |
| 2026-05-04 12:27 | 49.62483 | 6.53197 | 33991 ft | 383 kts | 317° |
| 2026-05-04 12:28 | 49.65310 | 6.49951 | 34007 ft | 377 kts | 316° |
| 2026-05-04 12:34 | 49.65784 | 6.49406 | 34090 ft | 370 kts | 316° |
| 2026-05-04 12:34 | 49.67842 | 6.47040 | 33778 ft | 373 kts | 316° |
| 2026-05-04 12:35 | 49.69948 | 6.44598 | 33020 ft | 388 kts | 317° |
| 2026-05-04 12:35 | 49.72101 | 6.42108 | 32480 ft | 386 kts | 317° |
| 2026-05-04 12:35 | 49.74219 | 6.39668 | 31852 ft | 385 kts | 317° |
| 2026-05-04 12:35 | 49.76329 | 6.37237 | 31352 ft | 383 kts | 317° |
| 2026-05-04 12:36 | 49.78454 | 6.34788 | 30899 ft | 378 kts | 317° |
| 2026-05-04 12:36 | 49.80544 | 6.32376 | 30422 ft | 376 kts | 317° |
| 2026-05-04 12:36 | 49.81937 | 6.30764 | 30034 ft | 377 kts | 317° |
| 2026-05-04 12:36 | 49.84022 | 6.28349 | 29456 ft | 375 kts | 318° |
| 2026-05-04 12:37 | 49.86095 | 6.25947 | 28950 ft | 371 kts | 318° |
| 2026-05-04 12:37 | 49.88156 | 6.23555 | 28445 ft | 367 kts | 318° |
| 2026-05-04 12:37 | 49.90188 | 6.21195 | 27833 ft | 366 kts | 318° |
| 2026-05-04 12:37 | 49.92264 | 6.18772 | 26558 ft | 382 kts | 318° |
| 2026-05-04 12:38 | 49.94416 | 6.16254 | 25238 ft | 401 kts | 319° |
| 2026-05-04 12:38 | 49.96675 | 6.13616 | 23973 ft | 416 kts | 319° |
| 2026-05-04 12:38 | 49.98972 | 6.10940 | 22944 ft | 419 kts | 320° |
| 2026-05-04 12:38 | 50.01276 | 6.08259 | 22397 ft | 408 kts | 320° |
| 2026-05-04 12:39 | 50.03516 | 6.05648 | 21885 ft | 397 kts | 319° |
| 2026-05-04 12:39 | 50.05698 | 6.03095 | 21437 ft | 386 kts | 319° |
| 2026-05-04 12:39 | 50.07874 | 6.00736 | 20999 ft | 380 kts | 327° |
| 2026-05-04 12:39 | 50.10186 | 5.99041 | 20583 ft | 376 kts | 336° |
| 2026-05-04 12:40 | 50.12610 | 5.97647 | 20180 ft | 371 kts | 337° |
| 2026-05-04 12:40 | 50.15036 | 5.96288 | 19789 ft | 377 kts | 338° |
| 2026-05-04 12:40 | 50.17556 | 5.94870 | 19386 ft | 396 kts | 338° |
| 2026-05-04 12:40 | 50.20121 | 5.93416 | 18922 ft | 394 kts | 338° |
| 2026-05-04 12:41 | 50.22657 | 5.91970 | 18485 ft | 384 kts | 338° |
| 2026-05-04 12:41 | 50.25109 | 5.90561 | 18043 ft | 376 kts | 338° |
| 2026-05-04 12:41 | 50.27536 | 5.89160 | 17564 ft | 368 kts | 338° |
| 2026-05-04 12:41 | 50.29927 | 5.87772 | 17172 ft | 367 kts | 338° |
| 2026-05-04 12:42 | 50.32318 | 5.86381 | 16769 ft | 368 kts | 338° |
| 2026-05-04 12:42 | 50.34738 | 5.84971 | 16341 ft | 372 kts | 338° |
| 2026-05-04 12:42 | 50.37156 | 5.83562 | 15928 ft | 374 kts | 338° |
| 2026-05-04 12:42 | 50.39551 | 5.82165 | 15507 ft | 372 kts | 339° |
| 2026-05-04 12:43 | 50.41941 | 5.80768 | 15092 ft | 371 kts | 339° |
| 2026-05-04 12:43 | 50.44353 | 5.79359 | 14661 ft | 369 kts | 339° |
| 2026-05-04 12:43 | 50.46741 | 5.77963 | 14237 ft | 367 kts | 339° |
| 2026-05-04 12:43 | 50.49127 | 5.76565 | 13841 ft | 365 kts | 339° |
| 2026-05-04 12:44 | 50.51461 | 5.75198 | 13387 ft | 363 kts | 339° |
| 2026-05-04 12:44 | 50.53819 | 5.73813 | 12966 ft | 359 kts | 339° |
| 2026-05-04 12:44 | 50.56126 | 5.72363 | 12535 ft | 355 kts | 331° |
| 2026-05-04 12:44 | 50.57995 | 5.69947 | 12176 ft | 347 kts | 307° |
| 2026-05-04 12:45 | 50.59192 | 5.66715 | 11845 ft | 339 kts | 289° |
| 2026-05-04 12:45 | 50.59804 | 5.63178 | 11477 ft | 336 kts | 282° |
| 2026-05-04 12:45 | 50.60792 | 5.55770 | 10747 ft | 329 kts | 281° |
| 2026-05-04 12:46 | 50.61250 | 5.52291 | 10612 ft | 319 kts | 281° |
| 2026-05-04 12:46 | 50.61701 | 5.48922 | 10472 ft | 310 kts | 281° |
| 2026-05-04 12:46 | 50.62143 | 5.45657 | 10336 ft | 301 kts | 281° |
| 2026-05-04 12:46 | 50.62575 | 5.42490 | 10213 ft | 293 kts | 281° |
| 2026-05-04 12:47 | 50.62995 | 5.39427 | 10090 ft | 285 kts | 282° |
| 2026-05-04 12:47 | 50.63406 | 5.36431 | 9956 ft | 278 kts | 281° |
| 2026-05-04 12:47 | 50.63814 | 5.33452 | 9657 ft | 277 kts | 281° |
| 2026-05-04 12:47 | 50.64210 | 5.30554 | 9385 ft | 275 kts | 281° |
| 2026-05-04 12:48 | 50.64611 | 5.27629 | 9122 ft | 273 kts | 281° |
| 2026-05-04 12:48 | 50.64986 | 5.24707 | 8818 ft | 271 kts | 275° |
| 2026-05-04 12:48 | 50.64726 | 5.21831 | 8603 ft | 264 kts | 251° |
| 2026-05-04 12:48 | 50.64300 | 5.19021 | 8238 ft | 264 kts | 254° |
| 2026-05-04 12:49 | 50.63730 | 5.16246 | 7718 ft | 266 kts | 249° |
| 2026-05-04 12:49 | 50.63097 | 5.13531 | 7316 ft | 263 kts | 249° |
| 2026-05-04 12:49 | 50.62477 | 5.10873 | 6951 ft | 260 kts | 249° |
| 2026-05-04 12:49 | 50.61877 | 5.08246 | 6666 ft | 253 kts | 250° |
| 2026-05-04 12:50 | 50.61298 | 5.05665 | 6412 ft | 247 kts | 250° |
| 2026-05-04 12:50 | 50.60737 | 5.03137 | 6160 ft | 242 kts | 250° |
| 2026-05-04 12:50 | 50.60190 | 5.00646 | 5919 ft | 239 kts | 250° |
| 2026-05-04 12:50 | 50.59673 | 4.98258 | 5683 ft | 236 kts | 250° |
| 2026-05-04 12:51 | 50.59151 | 4.95865 | 5473 ft | 227 kts | 250° |
| 2026-05-04 12:51 | 50.58649 | 4.93557 | 5255 ft | 220 kts | 250° |
| 2026-05-04 12:51 | 50.58159 | 4.91308 | 5097 ft | 212 kts | 250° |
| 2026-05-04 12:51 | 50.57697 | 4.89193 | 4985 ft | 206 kts | 249° |
| 2026-05-04 12:52 | 50.57248 | 4.87126 | 4902 ft | 200 kts | 249° |
| 2026-05-04 12:52 | 50.56794 | 4.85037 | 4824 ft | 202 kts | 249° |
| 2026-05-04 12:52 | 50.56332 | 4.82919 | 4748 ft | 207 kts | 250° |
| 2026-05-04 12:52 | 50.55866 | 4.80778 | 4644 ft | 207 kts | 250° |
| 2026-05-04 12:53 | 50.55396 | 4.78626 | 4411 ft | 210 kts | 250° |
| 2026-05-04 12:53 | 50.54924 | 4.76456 | 4204 ft | 209 kts | 250° |
| 2026-05-04 12:53 | 50.54430 | 4.74373 | 3969 ft | 201 kts | 246° |
| 2026-05-04 12:53 | 50.53888 | 4.72404 | 3783 ft | 191 kts | 244° |
| 2026-05-04 12:54 | 50.53346 | 4.70536 | 3671 ft | 185 kts | 244° |
| 2026-05-04 12:54 | 50.52828 | 4.68764 | 3578 ft | 174 kts | 243° |
| 2026-05-04 12:54 | 50.52330 | 4.67069 | 3359 ft | 173 kts | 242° |
| 2026-05-04 12:54 | 50.51821 | 4.65383 | 3123 ft | 169 kts | 244° |
| 2026-05-04 12:55 | 50.51367 | 4.63785 | 2919 ft | 163 kts | 244° |
| 2026-05-04 12:55 | 50.50910 | 4.62207 | 2713 ft | 156 kts | 245° |
| 2026-05-04 12:55 | 50.50581 | 4.61078 | 2554 ft | 156 kts | 245° |
| 2026-05-04 12:55 | 50.50132 | 4.59541 | 2387 ft | 152 kts | 245° |
| 2026-05-04 12:56 | 50.49694 | 4.58038 | 2149 ft | 153 kts | 245° |
| 2026-05-04 12:56 | 50.49250 | 4.56515 | 1967 ft | 155 kts | 244° |
| 2026-05-04 12:56 | 50.48796 | 4.54959 | 1738 ft | 157 kts | 244° |
| 2026-05-04 12:56 | 50.48367 | 4.53485 | 1533 ft | 152 kts | 245° |
| 2026-05-04 12:57 | 50.47930 | 4.51977 | 1319 ft | 152 kts | 244° |
| 2026-05-04 12:57 | 50.47486 | 4.50457 | 1096 ft | 154 kts | 243° |
| 2026-05-04 12:57 | 50.47050 | 4.48960 | 898 ft | 152 kts | 244° |
| 2026-05-04 12:57 | 50.46626 | 4.47466 | 692 ft | 152 kts | 243° |
| 2026-05-04 12:58 | 50.46188 | 4.45984 | 591 ft | 134 kts | 244° |
| 2026-05-04 12:58 | 50.45902 | 4.45007 | 592 ft | 51 kts | 246° |
| 2026-05-04 12:58 | 50.45902 | 4.44816 | 596 ft | 9 kts | 315° |
| 2026-05-04 12:58 | 50.45962 | 4.44767 | 595 ft | 11 kts | 339° |
| 2026-05-04 12:59 | 50.46026 | 4.44821 | 596 ft | 11 kts | 51° |
| 2026-05-04 12:59 | 50.46063 | 4.44934 | 596 ft | 13 kts | 65° |
| 2026-05-04 12:59 | 50.46105 | 4.45078 | 595 ft | 16 kts | 66° |
| 2026-05-04 12:59 | 50.46151 | 4.45240 | 598 ft | 17 kts | 66° |
| 2026-05-04 13:00 | 50.46208 | 4.45431 | 598 ft | 21 kts | 66° |
| 2026-05-04 13:00 | 50.46272 | 4.45659 | 597 ft | 25 kts | 66° |
| 2026-05-04 13:00 | 50.46349 | 4.45917 | 596 ft | 25 kts | 64° |
| 2026-05-04 13:00 | 50.46421 | 4.46166 | 590 ft | 26 kts | 66° |
| 2026-05-04 13:01 | 50.46489 | 4.46399 | 588 ft | 24 kts | 65° |
| 2026-05-04 13:01 | 50.46534 | 4.46541 | 589 ft | 10 kts | 50° |
| 2026-05-04 13:01 | 50.46605 | 4.46535 | 589 ft | 13 kts | 340° |
| 2026-05-04 13:01 | 50.46670 | 4.46621 | 587 ft | 16 kts | 65° |
| 2026-05-04 13:02 | 50.46721 | 4.46793 | 586 ft | 15 kts | 65° |
| 2026-05-04 13:02 | 50.46771 | 4.46965 | 584 ft | 20 kts | 66° |
| 2026-05-04 13:02 | 50.46807 | 4.47091 | 585 ft | 14 kts | 66° |
| 2026-05-04 13:02 | 50.46840 | 4.47203 | 584 ft | 10 kts | 64° |
| 2026-05-04 13:03 | 50.46857 | 4.47261 | 584 ft | 3 kts | 65° |
| 2026-05-04 13:03 | 50.46879 | 4.47310 | 583 ft | 8 kts | 27° |
| 2026-05-04 13:03 | 50.46918 | 4.47294 | 584 ft | 5 kts | 336° |
| 2026-05-04 13:03 | 50.46926 | 4.47289 | 584 ft | 0 kts | 335° |